Latest Coastal Weather Observations for Friendly Beaches

IDT60701

Issued at 7:41 am EDT Wednesday 1 April 2015 (issued every 10 minutes, with the page automatically refreshed every 10 minutes)

About coastal observations | Map of coastal stations | Coastal observations for TAS | Marine services | Other Formats
Station Details ID: 092114 Name: FRIENDLY BEACHES Lat: -42.00 Lon: 148.28 Height: 55.0 m
Data from the previous 72 hours. | See also: Recent months at Friendly Beaches
Date/Time
EDT
Temp

°C
Wind Pressure Rain
since 9am
mm
Weather Cloud Vis
km
Sea
Height
m
Swell
Dir
 
Speed
knots
Gust
knots
hPa Trend Height
m
Period
s
Dir
01/07:30am 13.9 N 2 3 1016.7 - 0.0 - - - - - - -
01/07:00am 14.3 CALM 0 0 1016.6 - 0.0 - - - - - - -
01/06:30am 15.4 N 3 7 1016.8 - 0.0 - - - - - - -
01/06:00am 15.0 NW 5 8 1017.0 - 0.0 - - - - - - -
01/05:30am 12.9 NE 1 3 1017.2 - 0.0 - - - - - - -
01/05:00am 14.0 NW 5 8 1017.3 - 0.0 - - - - - - -
01/04:30am 12.0 CALM 0 0 1017.6 - 0.0 - - - - - - -
01/04:00am 12.0 W 3 5 1018.2 - 0.0 - - - - - - -
01/03:30am 12.4 WNW 3 4 1018.7 - 0.0 - - - - - - -
01/03:00am 12.5 WNW 4 5 1019.2 - 0.0 - - - - - - -
01/02:30am 12.0 W 1 3 1019.5 - 0.0 - - - - - - -
01/02:00am 12.5 WNW 4 5 1019.7 - 0.0 - - - - - - -
01/01:30am 12.6 WNW 4 6 1020.2 - 0.0 - - - - - - -
01/01:00am 13.2 WNW 3 4 1020.3 - 0.0 - - - - - - -
01/12:30am 13.6 NW 3 5 1020.5 - 0.0 - - - - - - -
01/12:00am 13.9 WNW 3 4 1020.7 - 0.0 - - - - - - -
 
Date/Time
EDT
Temp

°C
Wind Pressure Rain
since 9am
mm
Weather Cloud Vis
km
Sea
Height
m
Swell
Dir
 
Speed
knots
Gust
knots
hPa Trend Height
m
Period
s
Dir
31/11:30pm 13.7 WNW 4 5 1021.1 - 0.0 - - - - - - -
31/11:00pm 13.6 W 5 5 1020.9 - 0.0 - - - - - - -
31/10:30pm 13.9 WNW 4 8 1020.9 - 0.0 - - - - - - -
31/10:00pm 14.9 NW 2 3 1020.6 - 0.0 - - - - - - -
31/09:30pm 14.7 NW 2 2 1020.6 - 0.0 - - - - - - -
31/09:00pm 14.9 WNW 4 5 1020.6 - 0.0 - - - - - - -
31/08:30pm 14.2 CALM 0 0 1020.6 - 0.0 - - - - - - -
31/08:00pm 14.6 SSW 1 2 1020.4 - 0.0 - - - - - - -
31/07:30pm 15.1 SSE 2 4 1020.1 - 0.0 - - - - - - -
31/07:00pm 15.9 SE 3 3 1019.7 - 0.0 - - - - - - -
31/06:30pm 17.0 SE 3 4 1019.8 - 0.0 - - - - - - -
31/06:00pm 18.1 SE 3 5 1020.0 - 0.0 - - - - - - -
31/05:30pm 18.7 ENE 4 5 1020.1 - 0.0 - - - - - - -
31/05:00pm 18.7 NE 7 10 1020.1 - 0.0 - - - - - - -
31/04:30pm 18.8 NE 7 9 1020.2 - 0.0 - - - - - - -
31/04:00pm 19.6 ENE 6 9 1020.8 - 0.0 - - - - - - -
31/03:30pm 19.4 ENE 7 11 1020.9 - 0.0 - - - - - - -
31/03:00pm 20.1 ENE 7 10 1021.2 - 0.0 - - - - - - -
31/02:30pm 20.4 NE 9 12 1021.1 - 0.0 - - - - - - -
31/02:00pm 20.5 NE 9 13 1021.3 - 0.0 - - - - - - -
31/01:30pm 20.5 NE 8 12 1021.7 - 0.0 - - - - - - -
31/01:00pm 20.6 NE 8 11 1022.1 - 0.0 - - - - - - -
31/12:30pm 20.4 NNE 8 12 1022.5 - 0.0 - - - - - - -
31/12:00pm 20.0 NE 7 11 1023.1 - 0.0 - - - - - - -
31/11:30am 19.6 ENE 5 9 1023.3 - 0.0 - - - - - - -
31/11:00am 18.3 ENE 3 5 1023.7 - 0.0 - - - - - - -
31/10:30am 16.6 CALM 0 0 1024.0 - 0.0 - - - - - - -
31/10:00am 15.0 WNW 4 5 1024.1 - 0.0 - - - - - - -
31/09:30am 15.4 NW 1 2 1024.0 - 0.0 - - - - - - -
31/09:00am 12.3 WNW 4 5 1024.0 - 0.0 - - - - - - -
31/08:30am 10.7 WNW 5 5 1024.0 - 0.0 - - - - - - -
31/08:00am 9.9 WNW 5 6 1023.9 - 0.0 - - - - - - -
31/07:30am 9.8 WNW 5 5 1023.6 - 0.0 - - - - - - -
31/07:00am 10.3 WNW 4 5 1023.3 - 0.0 - - - - - - -
31/06:30am 10.1 WNW 5 5 1023.1 - 0.0 - - - - - - -
31/06:00am 10.6 WNW 6 7 1022.9 - 0.0 - - - - - - -
31/05:30am 11.3 NW 5 6 1022.6 - 0.0 - - - - - - -
31/05:00am 11.6 WNW 6 7 1022.8 - 0.0 - - - - - - -
31/04:30am 11.4 NW 5 6 1022.6 - 0.0 - - - - - - -
31/04:00am 11.9 WNW 6 7 1022.6 - 0.0 - - - - - - -
31/03:30am 12.1 WNW 5 6 1022.7 - 0.0 - - - - - - -
31/03:00am 12.6 WNW 5 6 1022.9 - 0.0 - - - - - - -
31/02:30am 12.8 NW 4 6 1023.0 - 0.0 - - - - - - -
31/02:00am 13.3 WNW 3 5 1022.9 - 0.0 - - - - - - -
31/01:30am 13.9 WSW 2 5 1022.8 - 0.0 - - - - - - -
31/01:00am 14.2 SW 5 10 1022.7 - 0.0 - - - - - - -
31/12:30am 14.4 S 7 11 1022.8 - 0.0 - - - - - - -
31/12:00am 14.3 SSW 5 8 1023.0 - 0.0 - - - - - - -
 
Date/Time
EDT
Temp

°C
Wind Pressure Rain
since 9am
mm
Weather Cloud Vis
km
Sea
Height
m
Swell
Dir
 
Speed
knots
Gust
knots
hPa Trend Height
m
Period
s
Dir
30/11:30pm 14.7 S 7 12 1022.8 - 0.0 - - - - - - -
30/11:00pm 14.9 SSW 6 10 1022.8 - 0.0 - - - - - - -
30/10:30pm 15.4 S 5 9 1022.7 - 0.0 - - - - - - -
30/10:00pm 16.2 SW 6 10 1022.3 - 0.0 - - - - - - -
30/09:30pm 16.5 SW 6 10 1022.1 - 0.0 - - - - - - -
30/09:00pm 16.7 WSW 5 9 1021.5 - 0.0 - - - - - - -
30/08:30pm 16.9 W 5 8 1021.0 - 0.0 - - - - - - -
30/08:00pm 15.9 WSW 3 6 1020.6 - 0.0 - - - - - - -
30/07:30pm 16.4 SSE 3 4 1020.1 - 0.0 - - - - - - -
30/07:00pm 17.1 SSE 3 3 1019.6 - 0.0 - - - - - - -
30/06:30pm 18.4 E 3 5 1019.1 - 0.0 - - - - - - -
30/06:00pm 19.8 NNE 6 8 1018.6 - 0.0 - - - - - - -
30/05:30pm 19.4 NE 5 8 1018.3 - 0.0 - - - - - - -
30/05:00pm 20.5 NE 7 13 1018.0 - 0.0 - - - - - - -
30/04:30pm 19.7 NNE 9 13 1017.8 - 0.0 - - - - - - -
30/04:00pm 21.5 NE 9 12 1017.8 - 0.0 - - - - - - -
30/03:30pm 21.8 NNE 7 13 1018.0 - 0.0 - - - - - - -
30/03:00pm 21.0 N 8 13 1017.8 - 0.0 - - - - - - -
30/02:30pm 19.6 NNE 10 15 1018.1 - 0.0 - - - - - - -
30/02:00pm 21.1 NNE 10 16 1018.3 - 0.0 - - - - - - -
30/01:30pm 22.9 NNW 6 14 1018.8 - 0.0 - - - - - - -
30/01:00pm 22.1 NW 8 13 1019.0 - 0.0 - - - - - - -
30/12:30pm 21.2 NW 10 16 1019.0 - 0.0 - - - - - - -
30/12:00pm 21.4 NW 7 13 1019.1 - 0.0 - - - - - - -
30/11:30am 20.4 WNW 7 12 1019.1 - 0.0 - - - - - - -
30/11:00am 20.0 W 3 5 1019.2 - 0.0 - - - - - - -
30/10:30am 18.9 NW 2 4 1019.4 - 0.0 - - - - - - -
30/10:00am 17.7 NW 2 4 1019.2 - 0.0 - - - - - - -
30/09:30am 16.9 NW 2 5 1019.1 - 0.0 - - - - - - -
30/09:00am 15.8 NW 3 5 1019.1 - 0.4 - - - - - - -
30/08:30am 14.7 NNW 3 4 1018.9 - 0.4 - - - - - - -
30/08:00am 13.6 NNW 2 5 1018.6 - 0.4 - - - - - - -
30/07:30am 13.4 NE 2 3 1018.2 - 0.4 - - - - - - -
30/07:00am 13.5 WNW 2 3 1017.8 - 0.4 - - - - - - -
30/06:30am 13.6 NNW 3 4 1017.6 - 0.4 - - - - - - -
30/06:00am 13.6 NW 2 3 1017.5 - 0.4 - - - - - - -
30/05:30am 13.8 NW 3 5 1017.1 - 0.4 - - - - - - -
30/05:00am 14.1 NNW 5 7 1017.1 - 0.4 - - - - - - -
30/04:30am 14.0 NNW 5 8 1017.0 - 0.4 - - - - - - -
30/04:00am 13.9 NNW 3 7 1017.1 - 0.4 - - - - - - -
30/03:30am 13.7 N 4 6 1017.2 - 0.4 - - - - - - -
30/03:00am 13.9 NNW 3 5 1017.6 - 0.4 - - - - - - -
30/02:30am 14.2 NNW 5 7 1017.7 - 0.4 - - - - - - -
30/02:00am 14.2 N 6 9 1017.8 - 0.4 - - - - - - -
30/01:30am 14.3 N 7 10 1018.0 - 0.4 - - - - - - -
30/01:00am 13.9 N 6 8 1018.1 - 0.4 - - - - - - -
30/12:30am 13.6 N 5 8 1018.2 - 0.4 - - - - - - -
30/12:00am 13.3 NNE 4 5 1018.2 - 0.4 - - - - - - -
 
Date/Time
EDT
Temp

°C
Wind Pressure Rain
since 9am
mm
Weather Cloud Vis
km
Sea
Height
m
Swell
Dir
 
Speed
knots
Gust
knots
hPa Trend Height
m
Period
s
Dir
29/11:30pm 13.1 NNE 3 3 1018.5 - 0.4 - - - - - - -
29/11:00pm 13.4 NE 3 4 1018.5 - 0.4 - - - - - - -
29/10:30pm 13.7 NE 3 4 1018.6 - 0.4 - - - - - - -
29/10:00pm 13.6 NE 2 3 1018.7 - 0.4 - - - - - - -
29/09:30pm 13.9 SE 2 3 1018.4 - 0.4 - - - - - - -
29/09:00pm 14.2 SSE 2 3 1018.2 - 0.4 Recent precip. - - - - - -
29/08:30pm 14.6 SSE 4 5 1017.9 - 0.4 - - - - - - -
29/08:00pm 14.9 SSE 5 8 1017.7 - 0.2 - - - - - - -
29/07:30pm 15.3 SE 6 10 1017.5 - 0.0 - - - - - - -
29/07:00pm 15.5 SE 4 6 1016.8 - 0.0 - - - - - - -
29/06:30pm 15.9 SE 4 6 1016.4 - 0.0 - - - - - - -
29/06:00pm 16.7 S 6 12 1016.1 - 0.0 - - - - - - -
29/05:30pm 18.9 W 11 19 1015.4 - 0.0 - - - - - - -
29/05:00pm 19.8 WNW 10 17 1014.6 - 0.0 - - - - - - -
29/04:30pm 20.8 WNW 12 22 1014.3 - 0.0 - - - - - - -
29/04:00pm 21.1 WNW 14 22 1014.5 - 0.0 - - - - - - -
29/03:30pm 21.2 WNW 13 23 1014.5 - 0.0 - - - - - - -
29/03:00pm 20.6 WNW 11 20 1014.5 - 0.0 - - - - - - -
29/02:30pm 21.1 NW 12 23 1014.6 - 0.0 - - - - - - -
29/02:00pm 21.2 NW 10 18 1014.8 - 0.0 - - - - - - -
29/01:30pm 20.3 WNW 11 19 1015.0 - 0.0 - - - - - - -
29/01:00pm 19.7 WNW 11 18 1015.3 - 0.0 - - - - - - -
29/12:30pm 19.5 WNW 13 22 1015.2 - 0.0 - - - - - - -
29/12:00pm 19.9 NW 6 16 1015.6 - 0.0 - - - - - - -
29/11:30am 18.9 WNW 6 13 1015.8 - 0.0 - - - - - - -
29/11:00am 17.8 NW 10 22 1015.8 - 0.0 - - - - - - -
29/10:30am 17.0 WNW 12 21 1016.1 - 0.0 - - - - - - -
29/10:00am 16.1 WNW 10 20 1016.2 - 0.0 - - - - - - -
29/09:30am 15.4 W 8 16 1016.1 - 0.0 - - - - - - -
29/09:00am 14.4 W 9 15 1015.8 - 0.0 - - - - - - -
29/08:30am 13.7 W 11 20 1015.4 - 0.0 - - - - - - -
29/08:00am 13.1 WNW 12 21 1015.0 - 0.0 - - - - - - -

Other Formats:

Comma delimited format used in spreadsheet applications
http://www.bom.gov.au/fwo/IDT60701/IDT60701.94987.axf

JavaScript Object Notation format (JSON) in row-major order
http://www.bom.gov.au/fwo/IDT60701/IDT60701.94987.json